Tinaja, New Mexico
Current Conditions -  °F | °C
As of 12:53 PM on Thursday 18 Dec 2014 (Local Time) from KGUP Reporting Station
Broken Clouds Broken Clouds  
Wind Chill:   Ceiling: 3000
Heat Index:   Visibility: 10mi
Dew Point: -3°   Wind: 3mph
Humidity: 70%   Direction: 270°W
Pressure: 30.11"   Gusts: NA
Location:  35.1314°N, 108.496°W
Report Text: KGUP 181953Z AUTO 27003KT 10SM SCT021 BKN030 BKN110 02/M03 A3011 RMK AO2 SLP198 T00221028
Loading
Personal Weather Stations






























Interactive Weather Map New forecast layout! Learn more

10-Day Weather Forecast

Advertisements
Track Severe Weather on mobile